createdAt,value
2022-11-01T00:01:09.615Z,9.80
2022-11-01T00:03:36.013Z,10.20
2022-11-01T00:06:02.385Z,9.50
2022-11-01T00:08:28.886Z,11.43
2022-11-01T00:11:02.615Z,10.32
2022-11-01T00:13:29.118Z,10.85
2022-11-01T00:15:55.450Z,9.75
2022-11-01T00:18:21.768Z,9.10
2022-11-01T00:20:48.134Z,9.00
2022-11-01T00:23:14.457Z,10.05
2022-11-01T00:25:40.795Z,9.55
2022-11-01T00:28:07.138Z,9.65
2022-11-01T00:30:38.616Z,10.43
2022-11-01T00:33:05.237Z,8.68
2022-11-01T00:35:32.304Z,9.15
2022-11-01T00:38:06.371Z,9.80
2022-11-01T00:40:32.959Z,8.85
2022-11-01T00:43:01.596Z,9.38
2022-11-01T00:45:27.932Z,8.75
2022-11-01T00:47:54.290Z,9.73
2022-11-01T00:50:20.612Z,10.35
2022-11-01T00:52:47.286Z,9.75
2022-11-01T00:55:13.597Z,9.30
2022-11-01T00:57:40.049Z,10.48
2022-11-01T01:00:07.305Z,9.55
2022-11-01T01:02:33.724Z,9.13
2022-11-01T01:05:00.121Z,9.25
2022-11-01T01:07:26.511Z,10.00
2022-11-01T01:09:52.865Z,10.18
2022-11-01T01:12:19.201Z,10.02
2022-11-01T01:14:45.550Z,9.10
2022-11-01T01:17:11.872Z,9.05
2022-11-01T01:19:38.210Z,8.45
2022-11-01T01:22:04.552Z,9.07
2022-11-01T01:24:31.632Z,9.05
2022-11-01T01:26:57.952Z,10.05
2022-11-01T01:29:24.377Z,9.07
2022-11-01T01:31:51.579Z,7.10
2022-11-01T01:34:18.353Z,10.00
2022-11-01T01:36:45.284Z,10.30
2022-11-01T01:39:11.662Z,9.32
2022-11-01T01:41:56.399Z,9.05
2022-11-01T01:45:00.392Z,9.18
2022-11-01T01:47:35.273Z,9.38
2022-11-01T01:50:10.949Z,8.88
2022-11-01T01:52:42.478Z,9.63
2022-11-01T01:55:10.301Z,11.07
2022-11-01T01:57:37.324Z,9.65
2022-11-01T02:00:05.292Z,9.75
2022-11-01T02:02:31.873Z,10.52
2022-11-01T02:05:00.916Z,9.80
2022-11-01T02:07:27.240Z,9.40
2022-11-01T02:09:54.244Z,10.13
2022-11-01T02:12:24.953Z,9.82
2022-11-01T02:14:51.300Z,9.63
2022-11-01T02:17:28.139Z,9.75
2022-11-01T02:20:22.001Z,10.70
2022-11-01T02:23:30.343Z,11.07
2022-11-01T02:26:14.357Z,9.15
2022-11-01T02:29:34.353Z,10.77
2022-11-01T02:32:38.696Z,11.38
2022-11-01T02:35:10.643Z,12.70
2022-11-01T02:37:53.657Z,12.93
2022-11-01T02:40:47.835Z,13.00
2022-11-01T02:43:19.625Z,14.68
2022-11-01T02:45:50.404Z,13.45
2022-11-01T02:48:20.937Z,14.20
2022-11-01T02:50:51.809Z,14.55
2022-11-01T02:53:18.117Z,13.73
2022-11-01T02:58:22.519Z,15.93
2022-11-01T03:00:48.970Z,14.63
2022-11-01T03:03:33.957Z,16.13
2022-11-01T03:06:00.193Z,15.15
2022-11-01T03:08:45.152Z,17.05
2022-11-01T03:11:18.096Z,18.00
2022-11-01T03:14:07.139Z,16.67
2022-11-01T03:17:02.412Z,18.65
2022-11-01T03:19:38.896Z,17.25
2022-11-01T03:22:18.188Z,19.38
2022-11-01T03:24:48.159Z,18.10
2022-11-01T03:27:26.430Z,16.33
2022-11-01T03:29:58.644Z,19.15
2022-11-01T03:32:28.399Z,17.95
2022-11-01T03:34:55.493Z,18.50
2022-11-01T03:37:21.805Z,17.55
2022-11-01T03:39:49.503Z,18.88
2022-11-01T03:42:19.032Z,17.73
2022-11-01T03:44:47.795Z,18.75
2022-11-01T03:47:14.328Z,17.98
2022-11-01T03:49:40.699Z,18.55
2022-11-01T03:52:07.872Z,18.90
2022-11-01T03:54:34.183Z,17.17
2022-11-01T03:57:00.506Z,19.35
2022-11-01T03:59:27.004Z,19.63
2022-11-01T04:01:53.481Z,19.08
2022-11-01T04:04:19.965Z,19.55
2022-11-01T04:06:46.301Z,18.52
2022-11-01T04:09:12.642Z,19.52
2022-11-01T04:11:38.973Z,19.13
2022-11-01T04:14:23.923Z,19.35
2022-11-01T04:17:08.591Z,18.13
2022-11-01T04:19:53.533Z,19.25
2022-11-01T04:22:22.134Z,17.58
2022-11-01T04:24:50.887Z,18.75
2022-11-01T04:27:17.246Z,17.63
2022-11-01T04:29:43.559Z,17.38
2022-11-01T04:32:09.877Z,19.20
2022-11-01T04:34:42.079Z,18.42
2022-11-01T04:37:08.694Z,18.67
2022-11-01T04:39:35.016Z,17.95
2022-11-01T04:42:01.353Z,19.08
2022-11-01T04:44:27.741Z,19.67
2022-11-01T04:46:54.119Z,18.80
2022-11-01T04:49:20.461Z,18.25
2022-11-01T04:51:46.784Z,18.92
2022-11-01T04:54:13.091Z,18.60
2022-11-01T04:56:39.403Z,19.00
2022-11-01T04:59:05.739Z,18.75
2022-11-01T05:01:32.138Z,17.80
2022-11-01T05:03:58.516Z,17.50
2022-11-01T05:06:24.860Z,18.17
2022-11-01T05:08:51.206Z,17.38
2022-11-01T05:11:17.514Z,17.80
2022-11-01T05:13:43.840Z,17.55
2022-11-01T05:16:25.481Z,16.65
2022-11-01T05:18:51.819Z,18.75
2022-11-01T05:21:18.135Z,17.65
2022-11-01T05:23:47.268Z,16.80
2022-11-01T05:26:13.578Z,16.27
2022-11-01T05:28:39.890Z,17.60
2022-11-01T05:31:06.267Z,17.77
2022-11-01T05:33:32.584Z,18.15
2022-11-01T05:36:00.929Z,16.98
2022-11-01T05:38:27.444Z,18.58
2022-11-01T05:40:53.796Z,17.25
2022-11-01T05:43:20.160Z,19.60
2022-11-01T05:45:46.492Z,19.27
2022-11-01T05:48:12.808Z,19.48
2022-11-01T05:50:39.152Z,19.75
2022-11-01T05:53:09.919Z,20.25
2022-11-01T05:55:36.804Z,21.25
2022-11-01T05:58:03.527Z,21.20
2022-11-01T06:00:29.923Z,20.90
2022-11-01T06:02:59.703Z,20.90
2022-11-01T06:05:27.081Z,22.67
2022-11-01T06:07:53.392Z,23.65
2022-11-01T06:10:19.724Z,25.45
2022-11-01T06:12:46.068Z,25.33
2022-11-01T06:15:12.428Z,25.48
2022-11-01T06:17:38.922Z,26.33
2022-11-01T06:20:05.666Z,25.50
2022-11-01T06:22:35.124Z,26.45
2022-11-01T06:25:01.477Z,25.65
2022-11-01T06:27:28.508Z,25.90
2022-11-01T06:29:55.186Z,26.80
2022-11-01T06:32:21.492Z,26.75
2022-11-01T06:34:47.821Z,25.42
2022-11-01T06:37:14.136Z,26.65
2022-11-01T06:39:40.435Z,26.10
2022-11-01T06:42:06.784Z,24.52
2022-11-01T06:44:33.125Z,25.70
2022-11-01T06:46:59.624Z,26.45
2022-11-01T06:49:26.019Z,27.02
2022-11-01T06:51:52.335Z,27.13
2022-11-01T06:54:18.698Z,26.23
2022-11-01T06:56:47.574Z,28.23
2022-11-01T06:59:16.264Z,27.75
2022-11-01T07:01:43.397Z,27.27
2022-11-01T07:06:41.196Z,28.27
2022-11-01T07:09:07.515Z,29.30
2022-11-01T07:11:33.951Z,27.10
2022-11-01T07:14:00.295Z,29.10
2022-11-01T07:16:26.851Z,29.23
2022-11-01T07:18:53.330Z,28.42
2022-11-01T07:21:19.812Z,27.65
2022-11-01T07:23:46.401Z,28.83
2022-11-01T07:26:12.956Z,29.98
2022-11-01T07:28:39.516Z,29.77
2022-11-01T07:31:06.252Z,30.13
2022-11-01T07:33:32.625Z,26.98
2022-11-01T07:36:01.166Z,28.10
2022-11-01T07:38:27.479Z,27.70
2022-11-01T07:40:54.559Z,28.25
2022-11-01T07:43:21.016Z,27.15
2022-11-01T07:45:47.632Z,27.02
2022-11-01T07:48:16.147Z,27.35
2022-11-01T07:50:43.614Z,25.40
2022-11-01T07:53:11.566Z,25.95
2022-11-01T07:55:38.159Z,25.98
2022-11-01T07:58:05.325Z,26.73
2022-11-01T08:00:33.355Z,26.13
2022-11-01T08:03:04.969Z,23.48
2022-11-01T08:05:32.294Z,23.83
2022-11-01T08:07:59.182Z,23.20
2022-11-01T08:10:26.534Z,23.13
2022-11-01T08:12:53.003Z,22.85
2022-11-01T08:15:19.456Z,22.70
2022-11-01T08:17:46.100Z,22.27
2022-11-01T08:20:12.453Z,21.92
2022-11-01T08:22:40.294Z,22.77
2022-11-01T08:25:07.387Z,22.17
2022-11-01T08:27:34.602Z,19.73
2022-11-01T08:30:02.020Z,20.17
2022-11-01T08:32:28.405Z,20.65
2022-11-01T08:34:54.744Z,19.27
2022-11-01T08:37:21.085Z,20.33
2022-11-01T08:39:47.425Z,19.77
2022-11-01T08:42:13.826Z,19.05
2022-11-01T08:44:40.211Z,19.20
2022-11-01T08:47:06.625Z,17.35
2022-11-01T08:49:33.085Z,18.77
2022-11-01T08:51:59.406Z,18.67
2022-11-01T08:54:25.765Z,19.23
2022-11-01T08:56:52.161Z,18.60
2022-11-01T08:59:18.515Z,18.02
2022-11-01T09:01:44.965Z,17.42
2022-11-01T09:04:12.311Z,17.38
2022-11-01T09:06:38.709Z,17.05
2022-11-01T09:09:05.163Z,17.05
2022-11-01T09:11:31.542Z,16.83
2022-11-01T09:13:57.985Z,16.30
2022-11-01T09:16:24.774Z,17.17
2022-11-01T09:18:51.218Z,17.08
2022-11-01T09:21:18.172Z,16.15
2022-11-01T09:23:46.053Z,15.65
2022-11-01T09:26:13.136Z,15.32
2022-11-01T09:28:39.615Z,14.75
2022-11-01T09:31:20.039Z,15.43
2022-11-01T09:33:47.352Z,12.93
2022-11-01T09:36:13.696Z,13.10
2022-11-01T09:38:40.192Z,11.68
2022-11-01T09:41:24.673Z,11.43
2022-11-01T09:43:51.931Z,11.05
2022-11-01T09:48:48.968Z,9.82
2022-11-01T09:51:22.982Z,9.48
2022-11-01T09:53:52.308Z,8.75
2022-11-01T09:56:28.052Z,8.57
2022-11-01T09:59:04.305Z,8.30
2022-11-01T10:01:53.579Z,6.30
2022-11-01T10:04:33.323Z,6.00
2022-11-01T10:07:06.295Z,4.95
2022-11-01T10:10:04.802Z,4.35
2022-11-01T10:13:06.772Z,4.03
2022-11-01T10:15:52.354Z,4.03
2022-11-01T10:18:24.460Z,4.43
2022-11-01T10:20:50.880Z,4.03
2022-11-01T10:23:18.073Z,4.57
2022-11-01T10:25:48.959Z,3.40
2022-11-01T10:28:33.808Z,3.03
2022-11-01T10:31:05.240Z,2.75
2022-11-01T10:33:47.946Z,3.00
2022-11-01T10:36:28.130Z,2.50
2022-11-01T10:41:50.574Z,2.50
2022-11-01T10:44:31.052Z,2.00
2022-11-01T10:46:59.336Z,2.80
2022-11-01T10:50:04.337Z,2.05
2022-11-01T10:52:24.764Z,2.03
2022-11-01T10:54:52.162Z,1.65
2022-11-01T10:57:30.563Z,1.58
2022-11-01T10:59:59.667Z,1.55
2022-11-01T11:02:32.297Z,1.77
2022-11-01T11:04:58.691Z,1.35
2022-11-01T11:07:26.093Z,1.50
2022-11-01T11:09:52.561Z,1.23
2022-11-01T11:12:20.715Z,1.42
2022-11-01T11:14:53.459Z,1.10
2022-11-01T11:17:35.620Z,1.20
2022-11-01T11:20:08.422Z,1.30
2022-11-01T11:22:43.014Z,1.05
2022-11-01T11:25:17.382Z,1.13
2022-11-01T11:27:47.437Z,1.13
2022-11-01T11:30:14.842Z,1.35
2022-11-01T11:32:48.511Z,1.30
2022-11-01T11:35:18.938Z,0.82
2022-11-01T11:38:00.232Z,0.75
2022-11-01T11:40:27.703Z,1.05
2022-11-01T11:42:56.139Z,0.77
2022-11-01T11:45:27.973Z,1.00
2022-11-01T11:47:55.890Z,1.10
2022-11-01T11:50:33.015Z,0.90
2022-11-01T11:53:25.491Z,0.98
2022-11-01T11:55:57.901Z,1.05
2022-11-01T11:58:33.427Z,1.00
2022-11-01T12:01:11.867Z,1.10
2022-11-01T12:03:57.814Z,0.80
2022-11-01T12:06:26.297Z,1.30
2022-11-01T12:08:55.469Z,0.93
2022-11-01T12:11:23.339Z,1.40
2022-11-01T12:14:07.227Z,1.00
2022-11-01T12:16:40.666Z,0.95
2022-11-01T12:19:23.127Z,0.90
2022-11-01T12:21:49.532Z,1.10
2022-11-01T12:24:22.629Z,1.10
2022-11-01T12:26:51.484Z,1.10
2022-11-01T12:29:41.037Z,1.30
2022-11-01T12:32:15.083Z,0.95
2022-11-01T12:34:42.832Z,1.40
2022-11-01T12:37:28.440Z,0.95
2022-11-01T12:40:16.125Z,1.00
2022-11-01T12:42:50.175Z,1.10
2022-11-01T12:45:26.648Z,1.10
2022-11-01T12:48:00.806Z,1.63
2022-11-01T12:50:37.250Z,1.55
2022-11-01T12:53:25.192Z,1.35
2022-11-01T12:55:51.909Z,0.85
2022-11-01T12:58:21.104Z,1.45
2022-11-01T13:01:15.625Z,1.00
2022-11-01T13:03:44.804Z,1.23
2022-11-01T13:06:22.641Z,1.10
2022-11-01T13:09:03.303Z,1.00
2022-11-01T13:11:39.645Z,2.00
2022-11-01T13:14:27.359Z,1.60
2022-11-01T13:17:05.212Z,1.10
2022-11-01T13:19:39.674Z,1.02
2022-11-01T13:22:12.990Z,1.13
2022-11-01T13:24:47.189Z,1.27
2022-11-01T13:29:52.748Z,1.10
2022-11-01T13:32:35.361Z,1.27
2022-11-01T13:35:43.036Z,1.25
2022-11-01T13:38:26.807Z,1.70
2022-11-01T13:41:04.960Z,1.00
2022-11-01T13:43:38.477Z,1.50
2022-11-01T13:46:13.515Z,1.15
2022-11-01T13:48:53.849Z,1.38
2022-11-01T13:51:38.600Z,0.80
2022-11-01T13:54:14.387Z,1.30
2022-11-01T13:56:54.065Z,1.25
2022-11-01T13:59:55.292Z,1.45
2022-11-01T14:02:27.549Z,1.38
2022-11-01T14:04:55.918Z,1.05
2022-11-01T14:07:24.059Z,1.02
2022-11-01T14:09:54.482Z,1.17
2022-11-01T14:12:40.961Z,1.48
2022-11-01T14:15:09.526Z,0.88
2022-11-01T14:17:35.895Z,1.13
2022-11-01T14:20:06.598Z,1.20
2022-11-01T14:22:33.788Z,1.58
2022-11-01T14:25:02.781Z,1.05
2022-11-01T14:27:30.856Z,1.30
2022-11-01T14:29:57.358Z,1.42
2022-11-01T14:32:26.746Z,1.45
2022-11-01T14:34:59.851Z,1.00
2022-11-01T14:37:28.686Z,1.23
2022-11-01T14:39:59.597Z,1.25
2022-11-01T14:42:33.040Z,1.40
2022-11-01T14:45:00.561Z,1.27
2022-11-01T14:47:38.111Z,1.40
2022-11-01T14:50:48.026Z,1.52
2022-11-01T14:53:27.936Z,1.48
2022-11-01T14:56:06.602Z,1.38
2022-11-01T14:58:32.908Z,1.48
2022-11-01T15:01:10.580Z,1.25
2022-11-01T15:03:36.952Z,1.25
2022-11-01T15:06:05.884Z,1.40
2022-11-01T15:08:38.016Z,1.42
2022-11-01T15:11:04.988Z,1.73
2022-11-01T15:13:33.616Z,1.33
2022-11-01T15:16:07.647Z,1.63
2022-11-01T15:18:37.274Z,1.77
2022-11-01T15:21:03.880Z,1.08
2022-11-01T15:23:36.860Z,1.88
2022-11-01T15:26:08.321Z,1.73
2022-11-01T15:28:37.547Z,1.50
2022-11-01T15:31:06.254Z,1.73
2022-11-01T15:33:33.301Z,1.92
2022-11-01T15:36:08.567Z,1.92
2022-11-01T15:38:49.583Z,1.80
2022-11-01T15:41:26.608Z,2.17
2022-11-01T15:43:54.876Z,1.58
2022-11-01T15:46:23.099Z,1.67
2022-11-01T15:48:50.699Z,1.67
2022-11-01T15:51:24.336Z,1.92
2022-11-01T15:54:01.135Z,3.55
2022-11-01T15:56:41.888Z,2.10
2022-11-01T15:59:17.287Z,1.77
2022-11-01T16:01:43.868Z,2.15
2022-11-01T16:04:11.292Z,2.10
2022-11-01T16:06:57.394Z,2.38
2022-11-01T16:09:48.443Z,1.80
2022-11-01T16:12:23.609Z,1.70
2022-11-01T16:14:55.261Z,2.05
2022-11-01T16:17:25.875Z,2.03
2022-11-01T16:19:52.673Z,2.25
2022-11-01T16:22:32.303Z,2.08
2022-11-01T16:25:05.070Z,2.20
2022-11-01T16:27:31.432Z,2.10
2022-11-01T16:29:57.896Z,1.98
2022-11-01T16:32:27.325Z,1.65
2022-11-01T16:34:55.351Z,2.35
2022-11-01T16:37:24.786Z,2.22
2022-11-01T16:39:52.147Z,2.08
2022-11-01T16:42:19.559Z,1.80
2022-11-01T16:44:50.358Z,2.50
2022-11-01T16:47:19.915Z,1.88
2022-11-01T16:49:48.862Z,2.38
2022-11-01T16:52:15.553Z,2.28
2022-11-01T16:54:42.921Z,3.65
2022-11-01T16:57:23.015Z,2.40
2022-11-01T16:59:50.938Z,1.90
2022-11-01T17:02:20.466Z,2.55
2022-11-01T17:04:49.895Z,3.08
2022-11-01T17:07:16.314Z,2.13
2022-11-01T17:09:43.089Z,2.40
2022-11-01T17:12:11.331Z,1.92
2022-11-01T17:14:38.154Z,2.35
2022-11-01T17:17:09.783Z,2.35
2022-11-01T17:19:38.681Z,2.53
2022-11-01T17:22:13.525Z,2.75
2022-11-01T17:24:39.917Z,2.75
2022-11-01T17:27:06.934Z,2.67
2022-11-01T17:29:33.300Z,2.38
2022-11-01T17:32:00.931Z,2.55
2022-11-01T17:34:28.726Z,2.53
2022-11-01T17:36:55.506Z,2.30
2022-11-01T17:39:21.937Z,2.13
2022-11-01T17:41:48.315Z,2.78
2022-11-01T17:44:14.721Z,2.72
2022-11-01T17:46:41.163Z,3.08
2022-11-01T17:49:08.711Z,2.53
2022-11-01T17:51:35.108Z,2.78
2022-11-01T17:54:01.623Z,2.80
2022-11-01T17:56:30.934Z,3.00
2022-11-01T17:58:57.247Z,2.88
2022-11-01T18:01:23.664Z,2.67
2022-11-01T18:03:50.272Z,2.90
2022-11-01T18:06:17.126Z,2.22
2022-11-01T18:08:48.267Z,2.60
2022-11-01T18:11:41.995Z,2.80
2022-11-01T18:14:34.047Z,2.17
2022-11-01T18:17:06.726Z,2.13
2022-11-01T18:19:51.728Z,3.05
2022-11-01T18:22:30.468Z,3.05
2022-11-01T18:25:00.832Z,2.67
2022-11-01T18:27:35.616Z,2.47
2022-11-01T18:30:08.758Z,3.05
2022-11-01T18:32:39.790Z,2.53
2022-11-01T18:35:31.997Z,2.63
2022-11-01T18:38:25.949Z,2.50
2022-11-01T18:40:57.854Z,2.50
2022-11-01T18:43:26.811Z,2.58
2022-11-01T18:48:41.606Z,2.10
2022-11-01T18:51:13.188Z,2.90
2022-11-01T18:53:39.568Z,2.50
2022-11-01T18:56:23.329Z,2.40
2022-11-01T18:58:51.157Z,3.30
2022-11-01T19:01:33.671Z,2.80
2022-11-01T19:04:21.739Z,2.75
2022-11-01T19:06:48.798Z,2.60
2022-11-01T19:09:25.737Z,2.95
2022-11-01T19:12:00.856Z,2.65
2022-11-01T19:14:27.504Z,2.78
2022-11-01T19:16:54.156Z,3.00
2022-11-01T19:19:20.989Z,3.22
2022-11-01T19:21:47.490Z,3.17
2022-11-01T19:24:32.420Z,3.15
2022-11-01T19:26:59.357Z,2.92
2022-11-01T19:29:26.865Z,3.40
2022-11-01T19:32:00.478Z,2.88
2022-11-01T19:34:34.096Z,3.42
2022-11-01T19:37:02.326Z,2.90
2022-11-01T19:39:40.448Z,2.78
2022-11-01T19:42:16.535Z,4.32
2022-11-01T19:44:42.909Z,3.50
2022-11-01T19:47:41.083Z,3.60
2022-11-01T19:50:23.887Z,3.92
2022-11-01T19:52:51.491Z,3.70
2022-11-01T19:55:36.208Z,4.15
2022-11-01T19:58:26.439Z,3.67
2022-11-01T20:01:03.122Z,2.97
2022-11-01T20:03:39.549Z,5.03
2022-11-01T20:06:17.663Z,4.78
2022-11-01T20:08:45.325Z,3.60
2022-11-01T20:11:13.008Z,3.88
2022-11-01T20:13:39.565Z,3.30
2022-11-01T20:16:06.364Z,3.40
2022-11-01T20:18:32.869Z,3.38
2022-11-01T20:20:59.809Z,3.63
2022-11-01T20:23:27.288Z,3.65
2022-11-01T20:25:55.055Z,3.17
2022-11-01T20:28:21.750Z,2.83
2022-11-01T20:30:48.069Z,3.70
2022-11-01T20:33:14.420Z,3.20
2022-11-01T20:35:40.739Z,4.25
2022-11-01T20:38:07.168Z,4.03
2022-11-01T20:40:33.492Z,3.65
2022-11-01T20:43:00.170Z,3.55
2022-11-01T20:45:27.987Z,5.13
2022-11-01T20:47:55.200Z,5.05
2022-11-01T20:50:21.521Z,4.78
2022-11-01T20:52:49.536Z,3.88
2022-11-01T20:55:15.989Z,5.53
2022-11-01T20:57:42.464Z,6.15
2022-11-01T21:00:09.900Z,5.53
2022-11-01T21:02:36.427Z,4.32
2022-11-01T21:05:09.604Z,3.63
2022-11-01T21:07:35.925Z,4.10
2022-11-01T21:10:02.313Z,3.22
2022-11-01T21:12:45.489Z,3.25
2022-11-01T21:15:34.184Z,3.05
2022-11-01T21:18:00.390Z,2.90
2022-11-01T21:20:26.928Z,3.10
2022-11-01T21:22:59.660Z,3.20
2022-11-01T21:25:26.302Z,3.35
2022-11-01T21:27:52.677Z,3.25
2022-11-01T21:30:20.311Z,3.25
2022-11-01T21:32:47.308Z,3.63
2022-11-01T21:35:19.695Z,4.07
2022-11-01T21:37:54.535Z,3.30
2022-11-01T21:40:28.720Z,3.47
2022-11-01T21:45:32.212Z,2.78
2022-11-01T21:48:32.719Z,3.65
2022-11-01T21:50:59.154Z,3.47
2022-11-01T21:53:25.464Z,3.53
2022-11-01T21:55:51.828Z,3.35
2022-11-01T21:58:19.117Z,3.35
2022-11-01T22:00:45.557Z,3.35
2022-11-01T22:03:11.855Z,3.08
2022-11-01T22:05:38.193Z,2.75
2022-11-01T22:08:04.679Z,3.15
2022-11-01T22:10:31.163Z,3.08
2022-11-01T22:13:01.752Z,3.08
2022-11-01T22:15:32.743Z,4.45
2022-11-01T22:17:59.282Z,3.25
2022-11-01T22:20:25.615Z,2.95
2022-11-01T22:22:52.003Z,2.92
2022-11-01T22:25:18.338Z,2.53
2022-11-01T22:27:44.665Z,3.15
2022-11-01T22:30:11.429Z,2.53
2022-11-01T22:32:37.775Z,3.47
2022-11-01T22:35:04.505Z,3.05
2022-11-01T22:37:34.203Z,3.05
2022-11-01T22:40:00.915Z,3.10
2022-11-01T22:42:27.313Z,3.10
2022-11-01T22:44:53.904Z,3.33
2022-11-01T22:47:27.619Z,3.03
2022-11-01T22:50:03.061Z,2.55
2022-11-01T22:52:29.529Z,2.72
2022-11-01T22:55:02.368Z,3.13
2022-11-01T22:57:32.643Z,3.00
2022-11-01T23:00:01.957Z,2.95
2022-11-01T23:02:34.878Z,3.03
2022-11-01T23:05:07.300Z,3.05
2022-11-01T23:07:44.579Z,2.92
2022-11-01T23:10:31.309Z,3.25
2022-11-01T23:13:19.768Z,2.40
2022-11-01T23:15:46.144Z,3.15
2022-11-01T23:18:15.468Z,2.88
2022-11-01T23:20:43.209Z,3.00
2022-11-01T23:23:18.159Z,3.22
2022-11-01T23:25:44.685Z,3.03
2022-11-01T23:28:11.887Z,3.00
2022-11-01T23:30:38.588Z,3.53
2022-11-01T23:33:17.002Z,3.35
2022-11-01T23:35:57.109Z,3.30
2022-11-01T23:38:33.216Z,3.78
2022-11-01T23:40:59.596Z,3.30
2022-11-01T23:43:34.379Z,3.50
2022-11-01T23:46:01.452Z,3.88
2022-11-01T23:48:28.481Z,4.22
2022-11-01T23:50:54.971Z,4.50
2022-11-01T23:53:34.178Z,3.88
2022-11-01T23:56:02.001Z,4.03
